createdAt,value
2022-08-28T07:49:07.054Z,64.06
2022-08-28T07:50:39.486Z,63.98
2022-08-28T07:52:13.944Z,63.47
2022-08-28T07:53:46.383Z,63.17
2022-08-28T07:55:18.808Z,62.17
2022-08-28T07:56:51.689Z,62.52
2022-08-28T07:58:27.585Z,62.69
2022-08-28T08:00:00.009Z,62.03
2022-08-28T08:01:40.660Z,60.42
2022-08-28T08:03:14.107Z,60.31
2022-08-28T08:04:46.363Z,61.00
2022-08-28T08:06:19.141Z,60.13
2022-08-28T08:07:51.573Z,59.91
2022-08-28T08:09:24.028Z,59.24
2022-08-28T08:10:58.502Z,59.71
2022-08-28T08:12:32.509Z,60.41
2022-08-28T08:14:06.565Z,58.92
2022-08-28T08:15:38.887Z,58.84
2022-08-28T08:17:11.562Z,58.26
2022-08-28T08:18:44.354Z,55.31
2022-08-28T08:20:16.753Z,54.12
2022-08-28T08:21:54.912Z,56.78
2022-08-28T08:23:27.655Z,56.58
2022-08-28T08:25:01.087Z,56.90
2022-08-28T08:26:33.874Z,52.40
2022-08-28T08:28:06.328Z,49.64
2022-08-28T08:29:39.350Z,48.29
2022-08-28T08:31:17.697Z,48.33
2022-08-28T08:32:51.221Z,49.39
2022-08-28T08:34:23.548Z,49.80
2022-08-28T08:35:56.344Z,49.30
2022-08-28T08:37:28.798Z,49.01
2022-08-28T08:39:01.674Z,48.06
2022-08-28T08:40:38.983Z,46.91
2022-08-28T08:42:23.998Z,50.31
2022-08-28T08:44:06.884Z,50.30
2022-08-28T08:45:39.774Z,49.65
2022-08-28T08:47:20.070Z,48.35
2022-08-28T08:48:52.672Z,46.85
2022-08-28T08:50:33.860Z,48.12
2022-08-28T08:52:21.315Z,49.01
2022-08-28T08:54:25.942Z,49.48
2022-08-28T08:55:58.818Z,49.36
2022-08-28T08:57:31.710Z,49.23
2022-08-28T08:59:04.704Z,48.83
2022-08-28T09:01:11.531Z,49.42
2022-08-28T09:03:14.614Z,49.19
2022-08-28T09:04:58.210Z,50.12
2022-08-28T09:06:33.720Z,50.94
2022-08-28T09:08:07.947Z,49.55
2022-08-28T09:09:48.846Z,50.82
2022-08-28T09:11:45.398Z,49.73
2022-08-28T09:13:29.639Z,49.04
2022-08-28T09:15:13.073Z,48.79
2022-08-28T09:16:45.331Z,50.54
2022-08-28T09:18:28.542Z,50.92
2022-08-28T09:20:01.028Z,50.58
2022-08-28T09:21:38.548Z,50.61
2022-08-28T09:23:12.382Z,50.70
2022-08-28T09:24:45.825Z,49.92
2022-08-28T09:26:23.586Z,49.43
2022-08-28T09:27:55.984Z,48.79
2022-08-28T09:29:38.307Z,47.30
2022-08-28T09:31:14.676Z,48.27
2022-08-28T09:32:59.528Z,47.08
2022-08-28T09:34:38.825Z,47.15
2022-08-28T09:36:32.336Z,48.02
2022-08-28T09:38:27.573Z,47.91
2022-08-28T09:40:16.815Z,47.21
2022-08-28T09:42:40.944Z,46.81
2022-08-28T09:44:15.691Z,46.56
2022-08-28T09:46:16.889Z,45.91
2022-08-28T09:47:57.615Z,44.59
2022-08-28T09:49:31.349Z,44.99
2022-08-28T09:51:08.338Z,46.32
2022-08-28T09:52:40.681Z,46.36
2022-08-28T09:54:22.517Z,45.66
2022-08-28T09:56:12.303Z,45.09
2022-08-28T09:57:47.498Z,45.34
2022-08-28T09:59:21.975Z,44.65
2022-08-28T10:13:19.579Z,44.44
2022-08-28T10:14:55.019Z,43.84
2022-08-28T10:16:30.620Z,42.90
2022-08-28T10:18:06.029Z,43.55
2022-08-28T10:19:46.839Z,43.90
2022-08-28T10:21:36.772Z,41.57
2022-08-28T10:23:09.173Z,41.98
2022-08-28T10:25:19.900Z,39.23
2022-08-28T10:26:56.165Z,40.33
2022-08-28T10:28:46.978Z,40.87
2022-08-28T10:30:24.768Z,40.66
2022-08-28T10:32:15.414Z,40.18
2022-08-28T10:33:59.474Z,39.65
2022-08-28T10:35:56.016Z,41.89
2022-08-28T10:37:37.021Z,41.96
2022-08-28T10:39:09.535Z,39.34
2022-08-28T10:41:01.695Z,40.81
2022-08-28T10:42:44.329Z,41.54
2022-08-28T10:44:22.332Z,38.75
2022-08-28T10:45:55.597Z,38.70
2022-08-28T10:47:29.690Z,40.66
2022-08-28T10:49:11.527Z,40.81
2022-08-28T10:50:51.163Z,39.02
2022-08-28T10:54:28.226Z,40.55
2022-08-28T10:56:05.345Z,40.25
2022-08-28T10:57:43.262Z,39.62
2022-08-28T10:59:15.587Z,38.73
2022-08-28T11:00:48.152Z,42.76
2022-08-28T11:02:22.905Z,38.44
2022-08-28T11:03:57.321Z,39.45
2022-08-28T11:05:33.521Z,37.68
2022-08-28T11:07:09.196Z,38.85
2022-08-28T11:08:42.077Z,38.30
2022-08-28T11:10:29.596Z,39.46
2022-08-28T11:12:07.436Z,39.65
2022-08-28T11:13:48.964Z,40.77
2022-08-28T11:15:44.341Z,35.38
2022-08-28T11:17:22.582Z,37.33
2022-08-28T11:19:09.597Z,38.75
2022-08-28T11:21:16.344Z,38.08
2022-08-28T11:23:20.498Z,37.86
2022-08-28T11:25:14.238Z,38.72
2022-08-28T11:27:04.878Z,35.74
2022-08-28T11:28:37.059Z,36.57
2022-08-28T11:30:12.368Z,35.51
2022-08-28T11:31:44.729Z,37.29
2022-08-28T11:33:39.058Z,36.34
2022-08-28T11:35:29.955Z,37.42
2022-08-28T11:37:03.372Z,37.42
2022-08-28T11:39:02.963Z,38.27
2022-08-28T11:40:37.140Z,39.29
2022-08-28T11:42:14.164Z,38.51
2022-08-28T11:43:46.985Z,37.91
2022-08-28T11:45:45.711Z,38.13
2022-08-28T11:47:40.179Z,37.60
2022-08-28T11:49:24.994Z,37.55
2022-08-28T11:51:05.039Z,34.93
2022-08-28T11:52:50.784Z,35.23
2022-08-28T11:54:23.250Z,34.27
2022-08-28T11:56:29.062Z,36.15
2022-08-28T11:59:52.959Z,36.39
2022-08-28T12:01:35.864Z,36.30
2022-08-28T12:03:27.035Z,38.42
2022-08-28T12:04:59.522Z,38.25
2022-08-28T12:06:55.692Z,38.21
2022-08-28T12:08:52.067Z,37.02
2022-08-28T12:10:27.679Z,37.18
2022-08-28T12:12:27.045Z,37.02
2022-08-28T12:13:59.441Z,35.12
2022-08-28T12:18:48.022Z,34.63
2022-08-28T12:20:45.524Z,36.74
2022-08-28T12:22:23.616Z,36.67
2022-08-28T12:24:21.092Z,37.73
2022-08-28T12:26:07.086Z,35.90
2022-08-28T12:27:39.908Z,34.88
2022-08-28T12:29:35.863Z,34.96
2022-08-28T12:31:46.481Z,33.11
2022-08-28T12:33:41.721Z,36.10
2022-08-28T12:35:19.829Z,36.59
2022-08-28T12:37:04.391Z,36.42
2022-08-28T12:38:36.871Z,36.36
2022-08-28T12:40:19.888Z,36.60
2022-08-28T12:41:52.627Z,37.37
2022-08-28T12:45:08.367Z,35.36
2022-08-28T12:46:43.650Z,33.67
2022-08-28T12:48:34.843Z,32.90
2022-08-28T12:50:29.576Z,34.38
2022-08-28T12:52:18.626Z,35.58
2022-08-28T12:53:59.449Z,33.86
2022-08-28T12:55:33.217Z,35.40
2022-08-28T12:57:12.590Z,35.64
2022-08-28T12:58:45.336Z,35.64
2022-08-28T13:00:26.682Z,33.70
2022-08-28T13:02:27.806Z,34.45
2022-08-28T13:04:06.021Z,35.82
2022-08-28T13:05:43.003Z,35.65
2022-08-28T13:07:18.114Z,34.68
2022-08-28T13:08:50.751Z,31.52
2022-08-28T13:10:26.522Z,31.20
2022-08-28T13:11:59.053Z,33.12
2022-08-28T13:13:41.153Z,30.61
2022-08-28T13:15:14.994Z,30.53
2022-08-28T13:16:56.767Z,30.30
2022-08-28T13:18:50.714Z,29.80
2022-08-28T13:20:26.302Z,29.89
2022-08-28T13:22:03.715Z,31.21
2022-08-28T13:23:36.147Z,31.30
2022-08-28T13:25:09.441Z,32.68
2022-08-28T13:26:41.835Z,33.95
2022-08-28T13:28:16.159Z,33.74
2022-08-28T13:32:04.525Z,33.10
2022-08-28T13:33:37.041Z,32.81
2022-08-28T13:35:29.739Z,32.31
2022-08-28T13:37:07.428Z,33.88
2022-08-28T13:38:52.478Z,34.16
2022-08-28T13:40:56.351Z,32.87
2022-08-28T13:42:22.820Z,32.09
2022-08-28T13:43:55.104Z,32.02
2022-08-28T13:45:30.574Z,32.38
2022-08-28T13:47:16.059Z,30.87
2022-08-28T13:48:48.353Z,30.44
2022-08-28T13:50:20.600Z,31.12
2022-08-28T13:51:52.898Z,30.63
2022-08-28T13:53:25.753Z,30.28
2022-08-28T13:54:57.989Z,30.69
2022-08-28T13:56:31.814Z,30.87
2022-08-28T13:58:04.381Z,30.98
2022-08-28T13:59:36.700Z,29.34
2022-08-28T14:01:10.864Z,30.25
2022-08-28T14:03:01.488Z,30.21
2022-08-28T14:04:33.871Z,30.18
2022-08-28T14:06:11.892Z,30.99
2022-08-28T14:07:45.046Z,31.60
2022-08-28T14:09:17.706Z,30.99
2022-08-28T14:10:50.370Z,31.31
2022-08-28T14:12:22.774Z,29.99
2022-08-28T14:14:03.892Z,30.14
2022-08-28T14:15:36.381Z,29.74
2022-08-28T14:17:09.104Z,29.94
2022-08-28T14:18:41.479Z,30.56
2022-08-28T14:20:15.635Z,32.48
2022-08-28T14:21:48.355Z,32.99
2022-08-28T14:23:22.721Z,33.34
2022-08-28T14:24:55.123Z,34.70
2022-08-28T14:26:29.158Z,34.37
2022-08-28T14:28:01.574Z,34.08
2022-08-28T14:29:34.016Z,34.03
2022-08-28T14:31:12.267Z,34.40
2022-08-28T14:32:44.946Z,34.95
2022-08-28T14:35:51.137Z,37.88
2022-08-28T14:39:00.775Z,35.50
2022-08-28T14:40:43.567Z,32.65
2022-08-28T14:42:16.071Z,32.59
2022-08-28T14:43:50.160Z,33.87
2022-08-28T14:45:22.637Z,34.99
2022-08-28T14:46:57.278Z,37.23
2022-08-28T14:48:30.037Z,37.24
2022-08-28T14:50:02.614Z,37.10
2022-08-28T14:51:36.545Z,37.92
2022-08-28T14:53:10.255Z,37.80
2022-08-28T14:54:42.713Z,38.32
2022-08-28T14:56:15.127Z,32.52
2022-08-28T14:57:48.793Z,32.20
2022-08-28T14:59:26.891Z,31.65
2022-08-28T15:00:59.507Z,31.66
2022-08-28T15:02:31.901Z,33.45
2022-08-28T15:04:06.175Z,34.24
2022-08-28T15:05:38.887Z,34.38
2022-08-28T15:07:13.446Z,33.18
2022-08-28T15:08:47.050Z,31.80
2022-08-28T15:10:19.608Z,32.36
2022-08-28T15:11:52.092Z,33.27
2022-08-28T15:13:24.806Z,34.58
2022-08-28T15:15:04.092Z,35.71
2022-08-28T15:16:40.176Z,37.16
2022-08-28T15:18:12.733Z,37.02
2022-08-28T15:19:45.106Z,36.92
2022-08-28T15:21:20.870Z,38.21
2022-08-28T15:22:53.355Z,37.84
2022-08-28T15:24:29.110Z,38.38
2022-08-28T15:26:01.539Z,39.04
2022-08-28T15:27:34.175Z,39.38
2022-08-28T15:30:47.138Z,40.30
2022-08-28T15:32:19.509Z,38.86
2022-08-28T15:33:52.885Z,39.73
2022-08-28T15:35:25.276Z,40.74
2022-08-28T15:36:58.435Z,40.19
2022-08-28T15:38:53.940Z,40.68
2022-08-28T15:40:47.383Z,40.84
2022-08-28T15:42:19.802Z,41.30
2022-08-28T15:43:57.168Z,42.16
2022-08-28T15:45:29.770Z,42.20
2022-08-28T15:47:03.087Z,42.43
2022-08-28T15:48:35.662Z,42.71
2022-08-28T15:50:08.371Z,42.75
2022-08-28T15:51:43.887Z,43.31
2022-08-28T15:53:18.237Z,44.24
2022-08-28T15:54:50.872Z,44.08
2022-08-28T15:56:23.970Z,43.95
2022-08-28T15:57:57.323Z,44.43
2022-08-28T15:59:48.436Z,46.40
2022-08-28T16:01:22.985Z,45.79
2022-08-28T16:03:00.548Z,45.22
2022-08-28T16:04:33.142Z,46.55
2022-08-28T16:06:15.612Z,46.03
2022-08-28T16:07:48.199Z,45.81
2022-08-28T16:09:23.789Z,45.16
2022-08-28T16:10:56.723Z,47.76
2022-08-28T16:12:29.023Z,48.27
2022-08-28T16:14:04.943Z,48.35
2022-08-28T16:15:37.883Z,50.07
2022-08-28T16:17:10.667Z,51.27
2022-08-28T16:18:43.846Z,51.97
2022-08-28T16:20:16.614Z,52.45
2022-08-28T16:21:49.232Z,52.85
2022-08-28T16:23:21.630Z,52.78
2022-08-28T16:24:54.204Z,53.13
2022-08-28T16:26:30.191Z,53.26
2022-08-28T16:28:03.489Z,53.63
2022-08-28T16:29:36.043Z,53.85
2022-08-28T16:31:18.948Z,53.14
2022-08-28T16:32:52.494Z,53.29
2022-08-28T16:34:31.261Z,53.05
2022-08-28T16:36:11.889Z,53.55
2022-08-28T16:37:44.500Z,55.19
2022-08-28T16:39:17.065Z,55.81
2022-08-28T16:40:49.720Z,56.86
2022-08-28T16:42:23.791Z,56.69
2022-08-28T16:43:56.642Z,57.00
2022-08-28T16:45:28.922Z,57.14
2022-08-28T16:47:01.741Z,57.19
2022-08-28T16:48:34.206Z,57.03
2022-08-28T16:50:11.483Z,57.05
2022-08-28T16:51:44.056Z,57.30
2022-08-28T16:53:20.031Z,57.78
2022-08-28T16:54:56.928Z,57.92
2022-08-28T16:56:29.311Z,58.13
2022-08-28T16:58:01.503Z,57.85
2022-08-28T16:59:33.534Z,57.46
2022-08-28T17:01:11.069Z,57.60
2022-08-28T17:02:44.925Z,58.44
2022-08-28T17:04:17.435Z,59.19
2022-08-28T17:05:49.839Z,59.35
2022-08-28T17:07:22.557Z,59.24
2022-08-28T17:08:57.133Z,59.89
2022-08-28T17:10:29.985Z,59.79
2022-08-28T17:12:02.986Z,59.90
2022-08-28T17:13:36.886Z,61.92
2022-08-28T17:15:11.338Z,61.79
2022-08-28T17:16:44.031Z,61.97
2022-08-28T17:18:16.354Z,61.85
2022-08-28T17:19:48.843Z,63.20
2022-08-28T17:21:40.693Z,62.79
2022-08-28T17:23:13.247Z,62.99
2022-08-28T17:24:48.198Z,63.14
2022-08-28T17:26:25.475Z,63.27
2022-08-28T17:27:58.591Z,63.55
2022-08-28T17:29:30.604Z,63.59
2022-08-28T17:31:03.348Z,63.15
2022-08-28T17:32:35.963Z,64.30
2022-08-28T17:34:08.618Z,64.70
2022-08-28T17:35:42.210Z,64.35
2022-08-28T17:37:14.856Z,64.69
2022-08-28T17:38:48.067Z,64.20
2022-08-28T17:40:20.909Z,64.07
2022-08-28T17:41:57.154Z,63.96
2022-08-28T17:43:29.631Z,63.40
2022-08-28T17:45:02.235Z,64.34
2022-08-28T17:46:37.901Z,65.35
2022-08-28T17:48:14.889Z,66.11
2022-08-28T17:49:47.385Z,66.41
2022-08-28T17:51:20.184Z,66.04
2022-08-28T17:53:05.904Z,65.97
2022-08-28T17:54:38.272Z,66.52
2022-08-28T17:56:10.598Z,66.09
2022-08-28T17:57:43.079Z,66.46
2022-08-28T17:59:15.974Z,66.53
2022-08-28T18:00:48.565Z,66.38
2022-08-28T18:02:21.049Z,66.68
2022-08-28T18:03:55.780Z,66.42
2022-08-28T18:05:28.185Z,66.10
2022-08-28T18:07:00.580Z,66.61
2022-08-28T18:08:33.000Z,67.09
2022-08-28T18:11:38.853Z,66.89
2022-08-28T18:13:11.814Z,67.09
2022-08-28T18:14:44.347Z,67.25
2022-08-28T18:16:17.274Z,67.54
2022-08-28T18:17:51.240Z,67.67
2022-08-28T18:19:24.730Z,67.61
2022-08-28T18:20:57.886Z,67.59
2022-08-28T18:22:30.232Z,67.81
2022-08-28T18:24:03.344Z,67.67
2022-08-28T18:25:50.897Z,68.32
2022-08-28T18:27:27.400Z,67.96
2022-08-28T18:29:00.180Z,67.94
2022-08-28T18:30:33.539Z,68.56
2022-08-28T18:32:08.654Z,68.11
2022-08-28T18:33:41.630Z,68.80
2022-08-28T18:35:14.289Z,68.55
2022-08-28T18:36:46.978Z,68.47
2022-08-28T18:38:22.316Z,68.28
2022-08-28T18:39:54.918Z,68.79
2022-08-28T18:41:43.198Z,69.31
2022-08-28T18:43:20.863Z,69.48
2022-08-28T18:44:53.539Z,69.21
2022-08-28T18:46:26.242Z,69.74
2022-08-28T18:48:02.755Z,69.55
2022-08-28T18:49:35.412Z,69.32
2022-08-28T18:51:10.361Z,69.24
2022-08-28T18:52:43.950Z,69.89
2022-08-28T18:54:21.870Z,69.72
2022-08-28T18:55:55.763Z,69.94
2022-08-28T18:57:28.233Z,70.11
2022-08-28T18:59:00.683Z,70.05
2022-08-28T19:00:33.361Z,70.01
2022-08-28T19:02:05.791Z,70.39
2022-08-28T19:03:38.872Z,70.51
2022-08-28T19:05:12.076Z,70.61
2022-08-28T19:06:44.469Z,70.56
2022-08-28T19:08:19.819Z,70.72
2022-08-28T19:09:52.464Z,71.20
2022-08-28T19:11:25.172Z,71.30
2022-08-28T19:12:58.132Z,70.91
2022-08-28T19:14:30.687Z,71.26
2022-08-28T19:16:03.535Z,71.46
2022-08-28T19:17:37.571Z,70.88
2022-08-28T19:19:10.368Z,70.54
2022-08-28T19:20:43.335Z,70.79
2022-08-28T19:22:16.297Z,71.25
2022-08-28T19:23:56.070Z,71.27
2022-08-28T19:25:31.057Z,71.60
2022-08-28T19:27:04.071Z,71.68
2022-08-28T19:28:37.170Z,71.68
2022-08-28T19:30:16.216Z,72.12
2022-08-28T19:31:48.840Z,72.46
2022-08-28T19:33:21.664Z,72.66
2022-08-28T19:34:53.979Z,72.23
2022-08-28T19:36:27.932Z,72.75
2022-08-28T19:38:00.464Z,73.11
2022-08-28T19:39:32.957Z,73.05
2022-08-28T19:41:12.577Z,73.38
2022-08-28T19:42:45.066Z,73.20
2022-08-28T19:44:17.621Z,73.38
2022-08-28T19:45:50.218Z,73.30
2022-08-28T19:47:22.870Z,73.50
2022-08-28T19:48:56.065Z,73.37
2022-08-28T19:50:28.644Z,73.40
2022-08-28T19:52:01.383Z,73.63
2022-08-28T19:53:34.184Z,73.40
2022-08-28T19:55:08.104Z,73.36
2022-08-28T19:56:41.891Z,73.02
2022-08-28T19:58:14.461Z,73.29
2022-08-28T19:59:47.277Z,73.46
2022-08-28T20:01:21.172Z,73.19
2022-08-28T20:02:53.799Z,73.75
2022-08-28T20:04:26.620Z,74.07
2022-08-28T20:06:04.219Z,73.97
2022-08-28T20:09:13.005Z,74.09
2022-08-28T20:10:46.778Z,74.34
2022-08-28T20:12:20.213Z,74.85
2022-08-28T20:13:57.167Z,74.76
2022-08-28T20:15:31.379Z,74.91
2022-08-28T20:17:03.891Z,74.92
2022-08-28T20:18:36.208Z,74.76
2022-08-28T20:20:10.847Z,74.89
2022-08-28T20:21:49.493Z,75.17
2022-08-28T20:23:22.081Z,75.52
2022-08-28T20:24:54.878Z,74.94
2022-08-28T20:26:28.248Z,75.16
2022-08-28T20:28:01.928Z,75.49
2022-08-28T20:29:34.669Z,75.46
2022-08-28T20:31:20.911Z,75.40
2022-08-28T20:32:54.870Z,75.56
2022-08-28T20:34:27.990Z,75.55
2022-08-28T20:36:02.178Z,75.27
2022-08-28T20:37:44.714Z,76.06
2022-08-28T20:39:18.989Z,75.99
2022-08-28T20:40:51.393Z,76.18
2022-08-28T20:43:56.710Z,76.22
2022-08-28T20:45:29.676Z,76.33
2022-08-28T20:47:02.155Z,75.93
2022-08-28T20:48:34.605Z,76.02
2022-08-28T20:50:07.725Z,76.18
2022-08-28T20:51:54.101Z,75.66
2022-08-28T20:53:37.363Z,76.23
2022-08-28T20:55:13.485Z,76.09
2022-08-28T20:56:45.608Z,76.46
2022-08-28T20:58:17.849Z,76.03
2022-08-28T20:59:50.686Z,76.32
2022-08-28T21:01:23.854Z,76.28
2022-08-28T21:02:55.953Z,76.33
2022-08-28T21:04:30.751Z,76.15
2022-08-28T21:06:03.091Z,76.34
2022-08-28T21:07:35.645Z,75.80
2022-08-28T21:09:07.806Z,76.11
2022-08-28T21:10:43.574Z,76.18
2022-08-28T21:12:16.924Z,76.00
2022-08-28T21:13:49.017Z,76.04
2022-08-28T21:15:21.154Z,75.61
2022-08-28T21:17:01.350Z,75.55
2022-08-28T21:18:34.153Z,75.46
2022-08-28T21:20:10.502Z,75.70
2022-08-28T21:21:43.278Z,75.52
2022-08-28T21:23:15.668Z,75.74
2022-08-28T21:24:48.137Z,76.36
2022-08-28T21:26:20.382Z,75.85
2022-08-28T21:27:52.683Z,76.11
2022-08-28T21:29:24.768Z,76.48
2022-08-28T21:30:57.659Z,76.29
2022-08-28T21:32:30.919Z,75.99
2022-08-28T21:34:02.987Z,75.76
2022-08-28T21:35:35.923Z,76.16
2022-08-28T21:37:08.126Z,76.17
2022-08-28T21:38:40.353Z,76.46
2022-08-28T21:40:15.058Z,76.40
2022-08-28T21:41:48.117Z,76.22
2022-08-28T21:43:20.501Z,76.56
2022-08-28T21:44:52.750Z,76.18
2022-08-28T21:46:25.053Z,76.51
2022-08-28T21:47:57.175Z,76.44
2022-08-28T21:49:29.553Z,76.35
2022-08-28T21:51:01.632Z,76.15
2022-08-28T21:52:37.045Z,76.24
2022-08-28T21:54:09.179Z,76.00
2022-08-28T21:55:48.133Z,75.91
2022-08-28T21:57:20.182Z,75.70
2022-08-28T21:58:52.844Z,75.98
2022-08-28T22:00:25.067Z,76.01
2022-08-28T22:03:38.617Z,76.59
2022-08-28T22:05:10.647Z,76.38
2022-08-28T22:06:42.721Z,76.60
2022-08-28T22:08:15.774Z,76.95
2022-08-28T22:09:48.082Z,76.94
2022-08-28T22:11:24.532Z,77.00
2022-08-28T22:12:57.459Z,77.24
2022-08-28T22:14:29.787Z,77.43
2022-08-28T22:16:01.935Z,77.33
2022-08-28T22:17:34.160Z,76.93
2022-08-28T22:19:06.662Z,76.95
2022-08-28T22:21:00.746Z,76.54
2022-08-28T22:22:51.386Z,76.47
2022-08-28T22:24:24.079Z,76.83
2022-08-28T22:25:56.464Z,76.55
2022-08-28T22:27:28.701Z,76.43
2022-08-28T22:29:00.834Z,76.19
2022-08-28T22:30:33.972Z,76.56
2022-08-28T22:32:08.255Z,76.46
2022-08-28T22:33:40.501Z,76.55
2022-08-28T22:35:12.709Z,76.56
2022-08-28T22:36:44.856Z,76.49
2022-08-28T22:38:17.017Z,76.18
2022-08-28T22:39:49.133Z,76.47
2022-08-28T22:41:21.322Z,76.38
2022-08-28T22:42:56.477Z,76.71
2022-08-28T22:44:28.518Z,76.87
2022-08-28T22:46:01.011Z,77.05
2022-08-28T22:47:33.274Z,77.00
2022-08-28T22:49:05.483Z,77.47
2022-08-28T22:50:38.014Z,77.59
2022-08-28T22:52:11.900Z,77.27
2022-08-28T22:53:44.014Z,77.64
2022-08-28T22:55:19.345Z,77.56
2022-08-28T22:56:51.821Z,77.30
2022-08-28T22:58:23.849Z,77.73
2022-08-28T22:59:56.001Z,77.47
2022-08-28T23:01:28.247Z,77.67
2022-08-28T23:03:00.859Z,78.02
2022-08-28T23:04:33.014Z,78.18
2022-08-28T23:06:06.073Z,78.28
2022-08-28T23:07:38.483Z,78.31
2022-08-28T23:09:10.556Z,78.59
2022-08-28T23:10:58.680Z,78.23
2022-08-28T23:12:31.533Z,78.50
2022-08-28T23:14:05.519Z,78.72
2022-08-28T23:15:37.606Z,78.50
2022-08-28T23:17:10.214Z,78.59
2022-08-28T23:19:07.559Z,78.54
2022-08-28T23:20:35.518Z,78.60
2022-08-28T23:22:07.630Z,78.47
2022-08-28T23:23:39.686Z,78.34
2022-08-28T23:25:19.626Z,78.50
2022-08-28T23:26:51.680Z,78.43
2022-08-28T23:28:23.868Z,78.65
2022-08-28T23:29:56.818Z,78.44
2022-08-28T23:31:28.966Z,78.86
2022-08-28T23:33:01.483Z,78.66
2022-08-28T23:34:36.245Z,78.99
2022-08-28T23:36:10.724Z,78.86
2022-08-28T23:37:48.002Z,79.09
2022-08-28T23:39:20.919Z,78.97
2022-08-28T23:42:33.829Z,79.04
2022-08-28T23:44:08.689Z,79.11
2022-08-28T23:45:41.932Z,79.28
2022-08-28T23:47:14.352Z,79.24
2022-08-28T23:48:49.552Z,79.45
2022-08-28T23:50:23.763Z,79.39
2022-08-28T23:51:56.893Z,79.75
2022-08-28T23:53:29.062Z,79.53
2022-08-28T23:55:01.842Z,79.39
2022-08-28T23:56:37.011Z,79.58
2022-08-28T23:58:09.175Z,79.34
2022-08-28T23:59:44.002Z,79.52
